Rosebud, Texas
Current Conditions -  °F | °C
As of 1:15 PM on Saturday 20 Dec 2014 (Local Time) from KT35 Reporting Station
Overcast Overcast  
Wind Chill: 51°   Ceiling: 1200
Heat Index: 51°   Visibility: 10mi
Dew Point: 47°   Wind: 7mph
Humidity: 86%   Direction: 10°N
Pressure: 30.21"   Gusts: NA
Location:  31.07°N, 96.98°W
Report Text: KT35 201915Z AUTO 01006KT 10SM OVC012 11/09 A3021 RMK AO2 T01080085
Loading
Personal Weather Stations






























Interactive Weather Map New forecast layout! Learn more

10-Day Weather Forecast

Advertisements
Track Severe Weather on mobile